createdAt,value
2022-12-23T00:01:29.008Z,6.90
2022-12-23T00:03:58.445Z,6.90
2022-12-23T00:06:27.810Z,6.80
2022-12-23T00:08:58.886Z,6.80
2022-12-23T00:11:28.339Z,6.70
2022-12-23T00:14:21.142Z,6.60
2022-12-23T00:16:51.267Z,6.50
2022-12-23T00:19:19.910Z,6.50
2022-12-23T00:21:48.787Z,6.40
2022-12-23T00:24:16.843Z,6.40
2022-12-23T00:26:44.956Z,6.50
2022-12-23T00:29:13.640Z,6.50
2022-12-23T00:31:41.715Z,6.40
2022-12-23T00:34:12.253Z,6.50
2022-12-23T00:36:40.966Z,6.40
2022-12-23T00:39:30.375Z,6.50
2022-12-23T00:42:17.642Z,6.60
2022-12-23T00:44:45.557Z,6.50
2022-12-23T00:47:34.151Z,6.40
2022-12-23T00:50:02.174Z,6.40
2022-12-23T00:52:31.775Z,6.40
2022-12-23T00:55:00.110Z,6.50
2022-12-23T00:57:28.005Z,6.50
2022-12-23T00:59:56.371Z,6.50
2022-12-23T01:02:43.259Z,6.50
2022-12-23T01:05:30.181Z,6.50
2022-12-23T01:07:58.688Z,6.50
2022-12-23T01:10:26.741Z,6.50
2022-12-23T01:12:54.746Z,6.50
2022-12-23T01:15:23.425Z,6.60
2022-12-23T01:17:52.146Z,6.60
2022-12-23T01:20:20.269Z,6.60
2022-12-23T01:22:48.672Z,6.70
2022-12-23T01:25:17.034Z,6.70
2022-12-23T01:27:44.976Z,6.80
2022-12-23T01:30:13.944Z,6.70
2022-12-23T01:32:42.426Z,6.70
2022-12-23T01:35:10.373Z,6.60
2022-12-23T01:37:38.665Z,6.60
2022-12-23T01:40:07.837Z,6.60
2022-12-23T01:42:53.821Z,6.60
2022-12-23T01:45:27.876Z,6.60
2022-12-23T01:48:06.220Z,6.60
2022-12-23T01:50:42.921Z,6.70
2022-12-23T01:53:22.952Z,6.70
2022-12-23T01:55:53.703Z,6.70
2022-12-23T01:58:29.557Z,6.60
2022-12-23T02:01:18.424Z,6.60
2022-12-23T02:03:48.312Z,6.60
2022-12-23T02:06:47.971Z,6.60
2022-12-23T02:09:20.063Z,6.70
2022-12-23T02:11:57.652Z,6.70
2022-12-23T02:15:02.856Z,6.80
2022-12-23T02:18:12.812Z,6.80
2022-12-23T02:21:02.796Z,6.80
2022-12-23T02:23:53.333Z,6.80
2022-12-23T02:26:21.799Z,6.90
2022-12-23T02:29:21.409Z,7.00
2022-12-23T02:32:00.720Z,6.90
2022-12-23T02:34:55.193Z,6.80
2022-12-23T02:37:41.514Z,6.60
2022-12-23T02:40:26.152Z,6.50
2022-12-23T02:43:14.731Z,6.50
2022-12-23T02:45:49.563Z,6.40
2022-12-23T02:48:45.927Z,6.40
2022-12-23T02:51:16.447Z,6.30
2022-12-23T02:53:53.153Z,6.20
2022-12-23T02:56:23.628Z,6.30
2022-12-23T02:58:58.969Z,6.20
2022-12-23T03:01:31.470Z,6.20
2022-12-23T03:04:00.709Z,6.30
2022-12-23T03:06:43.530Z,6.10
2022-12-23T03:09:34.663Z,6.10
2022-12-23T03:12:10.149Z,5.90
2022-12-23T03:15:22.237Z,5.80
2022-12-23T03:18:07.133Z,5.90
2022-12-23T03:20:48.571Z,6.10
2022-12-23T03:23:40.315Z,5.90
2022-12-23T03:26:17.082Z,5.90
2022-12-23T03:29:25.235Z,5.90
2022-12-23T03:31:58.267Z,5.90
2022-12-23T03:34:30.835Z,5.80
2022-12-23T03:37:04.191Z,5.70
2022-12-23T03:39:41.204Z,5.60
2022-12-23T03:42:27.531Z,5.50
2022-12-23T03:45:36.213Z,5.40
2022-12-23T03:47:53.427Z,5.40
2022-12-23T03:50:24.175Z,5.50
2022-12-23T03:53:16.899Z,5.40
2022-12-23T03:56:00.648Z,5.20
2022-12-23T03:58:29.776Z,5.40
2022-12-23T04:01:14.455Z,5.60
2022-12-23T04:03:49.671Z,5.60
2022-12-23T04:06:19.723Z,5.50
2022-12-23T04:08:50.014Z,5.50
2022-12-23T04:11:43.999Z,5.30
2022-12-23T04:14:16.484Z,5.40
2022-12-23T04:16:45.590Z,5.50
2022-12-23T04:19:14.206Z,5.50
2022-12-23T04:21:42.704Z,5.60
2022-12-23T04:24:10.715Z,5.60
2022-12-23T04:26:39.331Z,5.50
2022-12-23T04:29:07.599Z,5.30
2022-12-23T04:31:35.639Z,5.10
2022-12-23T04:34:04.189Z,5.00
2022-12-23T04:36:33.228Z,4.90
2022-12-23T04:39:01.201Z,4.80
2022-12-23T04:41:29.806Z,4.60
2022-12-23T04:43:57.769Z,4.60
2022-12-23T04:46:26.338Z,4.80
2022-12-23T04:48:54.593Z,5.00
2022-12-23T04:51:22.569Z,5.00
2022-12-23T04:53:51.015Z,5.00
2022-12-23T04:56:19.341Z,5.10
2022-12-23T04:58:47.864Z,5.30
2022-12-23T05:01:15.962Z,5.40
2022-12-23T05:03:43.919Z,5.50
2022-12-23T05:06:12.604Z,5.50
2022-12-23T05:08:40.709Z,5.50
2022-12-23T05:11:09.363Z,5.40
2022-12-23T05:13:37.767Z,5.50
2022-12-23T05:16:06.718Z,5.60
2022-12-23T05:18:35.522Z,5.60
2022-12-23T05:21:03.761Z,5.60
2022-12-23T05:23:32.299Z,5.60
2022-12-23T05:26:00.246Z,5.70
2022-12-23T05:28:29.916Z,5.80
2022-12-23T05:31:06.501Z,5.80
2022-12-23T05:33:36.272Z,5.20
2022-12-23T05:36:05.329Z,5.10
2022-12-23T05:38:33.858Z,5.00
2022-12-23T05:41:02.510Z,5.30
2022-12-23T05:43:30.598Z,5.40
2022-12-23T05:45:59.222Z,5.30
2022-12-23T05:48:27.435Z,5.10
2022-12-23T05:50:56.004Z,5.20
2022-12-23T05:53:24.735Z,5.30
2022-12-23T05:55:52.701Z,5.40
2022-12-23T05:58:20.636Z,5.30
2022-12-23T06:00:49.706Z,5.30
2022-12-23T06:03:17.950Z,5.30
2022-12-23T06:05:50.863Z,5.20
2022-12-23T06:08:19.195Z,5.10
2022-12-23T06:10:48.219Z,5.00
2022-12-23T06:13:16.604Z,4.90
2022-12-23T06:15:44.595Z,4.80
2022-12-23T06:18:12.815Z,4.80
2022-12-23T06:20:40.874Z,5.10
2022-12-23T06:23:08.837Z,5.00
2022-12-23T06:25:37.254Z,5.10
2022-12-23T06:28:07.652Z,5.00
2022-12-23T06:30:35.819Z,5.00
2022-12-23T06:33:03.899Z,5.00
2022-12-23T06:35:33.179Z,4.80
2022-12-23T06:38:01.459Z,4.80
2022-12-23T06:40:29.842Z,4.70
2022-12-23T06:42:57.875Z,4.60
2022-12-23T06:45:26.675Z,4.50
2022-12-23T06:47:55.136Z,4.60
2022-12-23T06:50:23.635Z,4.70
2022-12-23T06:52:51.581Z,4.80
2022-12-23T06:55:20.147Z,4.80
2022-12-23T06:57:48.626Z,4.80
2022-12-23T07:00:17.462Z,4.90
2022-12-23T07:02:45.535Z,5.10
2022-12-23T07:05:13.699Z,5.50
2022-12-23T07:07:42.534Z,5.70
2022-12-23T07:10:11.557Z,5.60
2022-12-23T07:12:45.993Z,5.60
2022-12-23T07:15:17.997Z,5.70
2022-12-23T07:17:46.358Z,5.80
2022-12-23T07:20:15.610Z,6.20
2022-12-23T07:22:44.201Z,6.20
2022-12-23T07:25:12.431Z,6.00
2022-12-23T07:27:41.479Z,6.00
2022-12-23T07:30:09.932Z,6.10
2022-12-23T07:32:38.403Z,6.10
2022-12-23T07:35:06.850Z,6.20
2022-12-23T07:37:35.686Z,6.20
2022-12-23T07:40:08.617Z,6.20
2022-12-23T07:42:46.495Z,6.40
2022-12-23T07:45:15.413Z,6.70
2022-12-23T07:47:44.037Z,6.70
2022-12-23T07:50:12.930Z,6.90
2022-12-23T07:52:41.679Z,7.30
2022-12-23T07:55:10.611Z,7.60
2022-12-23T07:57:40.128Z,7.20
2022-12-23T08:00:11.648Z,7.00
2022-12-23T08:02:43.512Z,7.00
2022-12-23T08:05:14.555Z,6.90
2022-12-23T08:07:47.522Z,6.60
2022-12-23T08:10:16.191Z,6.60
2022-12-23T08:12:46.577Z,7.00
2022-12-23T08:15:14.772Z,7.40
2022-12-23T08:17:44.408Z,7.70
2022-12-23T08:20:12.723Z,7.40
2022-12-23T08:22:40.813Z,7.50
2022-12-23T08:25:09.711Z,7.60
2022-12-23T08:27:40.410Z,7.40
2022-12-23T08:30:09.530Z,7.60
2022-12-23T08:32:37.635Z,8.40
2022-12-23T08:35:07.847Z,8.60
2022-12-23T08:37:36.770Z,8.60
2022-12-23T08:40:06.227Z,8.50
2022-12-23T08:42:35.031Z,8.40
2022-12-23T08:45:03.613Z,9.00
2022-12-23T08:47:32.038Z,8.90
2022-12-23T08:50:00.906Z,8.60
2022-12-23T08:52:28.998Z,8.70
2022-12-23T08:54:57.342Z,8.90
2022-12-23T08:57:25.376Z,9.60
2022-12-23T08:59:53.444Z,9.60
2022-12-23T09:02:22.304Z,9.60
2022-12-23T09:04:50.735Z,9.60
2022-12-23T09:07:19.777Z,9.90
2022-12-23T09:09:48.449Z,10.10
2022-12-23T09:12:16.446Z,10.20
2022-12-23T09:14:47.772Z,10.10
2022-12-23T09:17:15.973Z,10.40
2022-12-23T09:19:48.735Z,10.90
2022-12-23T09:22:20.738Z,11.40
2022-12-23T09:24:48.813Z,11.20
2022-12-23T09:27:17.637Z,10.80
2022-12-23T09:29:46.024Z,10.70
2022-12-23T09:32:13.990Z,11.10
2022-12-23T09:34:41.975Z,11.30
2022-12-23T09:37:12.959Z,11.40
2022-12-23T09:39:41.416Z,11.60
2022-12-23T09:42:58.587Z,11.30
2022-12-23T09:45:45.171Z,11.00
2022-12-23T09:48:17.884Z,11.70
2022-12-23T09:50:46.879Z,11.60
2022-12-23T09:53:20.231Z,11.60
2022-12-23T09:55:57.709Z,11.70
2022-12-23T09:58:47.066Z,12.00
2022-12-23T10:01:40.245Z,12.50
2022-12-23T10:04:44.896Z,12.80
2022-12-23T10:07:38.895Z,13.20
2022-12-23T10:10:34.744Z,13.40
2022-12-23T10:13:06.215Z,14.50
2022-12-23T10:15:41.466Z,14.90
2022-12-23T10:18:55.965Z,15.40
2022-12-23T10:21:47.484Z,14.90
2022-12-23T10:24:30.022Z,13.50
2022-12-23T10:27:06.660Z,13.10
2022-12-23T10:29:35.179Z,12.80
2022-12-23T10:32:06.088Z,12.70
2022-12-23T10:34:38.606Z,12.70
2022-12-23T10:37:16.946Z,12.70
2022-12-23T10:40:07.812Z,12.50
2022-12-23T10:42:46.230Z,12.30
2022-12-23T10:45:20.731Z,12.40
2022-12-23T10:48:14.416Z,12.50
2022-12-23T10:50:49.306Z,12.60
2022-12-23T10:53:29.130Z,12.70
2022-12-23T10:55:58.277Z,12.80
2022-12-23T10:58:27.218Z,12.80
2022-12-23T11:01:00.558Z,13.00
2022-12-23T11:03:34.497Z,13.10
2022-12-23T11:06:04.868Z,13.20
2022-12-23T11:08:35.355Z,13.20
2022-12-23T11:11:04.046Z,13.20
2022-12-23T11:13:33.760Z,13.10
2022-12-23T11:16:24.970Z,13.30
2022-12-23T11:19:02.546Z,13.40
2022-12-23T11:21:32.833Z,13.50
2022-12-23T11:24:19.507Z,13.40
2022-12-23T11:27:09.969Z,13.40
2022-12-23T11:29:44.606Z,13.60
2022-12-23T11:32:26.589Z,13.60
2022-12-23T11:34:56.976Z,13.60
2022-12-23T11:37:42.070Z,13.70
2022-12-23T11:40:24.625Z,13.70
2022-12-23T11:43:02.312Z,13.60
2022-12-23T11:45:37.634Z,13.50
2022-12-23T11:48:26.051Z,13.50
2022-12-23T11:51:03.366Z,13.50
2022-12-23T11:53:32.371Z,13.70
2022-12-23T11:56:10.841Z,13.70
2022-12-23T11:58:54.970Z,13.80
2022-12-23T12:01:25.613Z,13.80
2022-12-23T12:03:59.444Z,13.80
2022-12-23T12:06:29.092Z,13.80
2022-12-23T12:08:59.190Z,13.80
2022-12-23T12:11:36.153Z,13.90
2022-12-23T12:14:07.556Z,13.90
2022-12-23T12:16:58.318Z,13.80
2022-12-23T12:19:30.835Z,13.90
2022-12-23T12:22:06.254Z,14.00
2022-12-23T12:24:42.067Z,13.90
2022-12-23T12:27:11.459Z,13.90
2022-12-23T12:29:49.195Z,14.00
2022-12-23T12:32:35.359Z,13.90
2022-12-23T12:35:09.067Z,14.00
2022-12-23T12:37:53.883Z,13.90
2022-12-23T12:40:30.639Z,13.90
2022-12-23T12:43:07.852Z,14.00
2022-12-23T12:45:47.859Z,13.90
2022-12-23T12:48:41.973Z,13.90
2022-12-23T12:51:28.944Z,14.00
2022-12-23T12:54:11.969Z,13.90
2022-12-23T12:56:51.468Z,14.00
2022-12-23T12:59:42.710Z,14.00
2022-12-23T13:02:52.529Z,14.00
2022-12-23T13:05:32.660Z,14.10
2022-12-23T13:08:07.015Z,14.10
2022-12-23T13:10:57.196Z,14.10
2022-12-23T13:13:51.968Z,14.10
2022-12-23T13:16:48.950Z,14.10
2022-12-23T13:19:36.799Z,14.20
2022-12-23T13:22:11.456Z,14.20
2022-12-23T13:24:44.883Z,14.20
2022-12-23T13:27:14.022Z,14.20
2022-12-23T13:30:01.496Z,14.10
2022-12-23T13:32:40.462Z,14.10
2022-12-23T13:35:33.732Z,14.10
2022-12-23T13:38:12.696Z,14.00
2022-12-23T13:41:06.785Z,14.00
2022-12-23T13:43:49.035Z,14.00
2022-12-23T13:46:22.716Z,14.10
2022-12-23T13:49:01.832Z,14.00
2022-12-23T13:51:41.111Z,14.00
2022-12-23T13:54:19.805Z,14.00
2022-12-23T13:57:10.592Z,13.90
2022-12-23T13:59:44.255Z,13.90
2022-12-23T14:02:38.076Z,13.80
2022-12-23T14:05:10.481Z,13.90
2022-12-23T14:07:44.957Z,13.90
2022-12-23T14:10:22.467Z,13.80
2022-12-23T14:12:53.358Z,13.70
2022-12-23T14:15:47.189Z,13.70
2022-12-23T14:18:35.411Z,13.70
2022-12-23T14:21:12.087Z,13.70
2022-12-23T14:24:04.223Z,13.80
2022-12-23T14:26:41.864Z,13.80
2022-12-23T14:29:15.769Z,13.80
2022-12-23T14:31:47.935Z,13.90
2022-12-23T14:34:20.127Z,13.90
2022-12-23T14:37:15.367Z,13.90
2022-12-23T14:39:44.000Z,13.90
2022-12-23T14:42:16.681Z,13.80
2022-12-23T14:44:49.918Z,13.70
2022-12-23T14:47:40.306Z,13.70
2022-12-23T14:50:42.652Z,13.60
2022-12-23T14:53:28.872Z,13.60
2022-12-23T14:56:15.270Z,13.50
2022-12-23T14:58:46.792Z,13.30
2022-12-23T15:01:27.357Z,13.30
2022-12-23T15:04:01.330Z,13.20
2022-12-23T15:06:39.679Z,13.20
2022-12-23T15:09:10.014Z,13.20
2022-12-23T15:11:40.862Z,13.00
2022-12-23T15:14:17.103Z,13.00
2022-12-23T15:16:46.532Z,13.00
2022-12-23T15:19:24.918Z,13.00
2022-12-23T15:22:15.326Z,13.00
2022-12-23T15:24:47.795Z,13.10
2022-12-23T15:27:29.696Z,13.00
2022-12-23T15:29:58.416Z,13.10
2022-12-23T15:32:28.391Z,13.00
2022-12-23T15:35:03.911Z,13.00
2022-12-23T15:37:33.689Z,12.80
2022-12-23T15:40:12.649Z,12.60
2022-12-23T15:42:48.753Z,12.60
2022-12-23T15:45:23.669Z,12.50
2022-12-23T15:47:52.395Z,12.40
2022-12-23T15:50:20.631Z,12.30
2022-12-23T15:52:50.962Z,12.20
2022-12-23T15:55:28.471Z,12.10
2022-12-23T15:57:59.377Z,12.10
2022-12-23T16:00:40.989Z,12.00
2022-12-23T16:03:35.346Z,11.90
2022-12-23T16:06:33.089Z,11.90
2022-12-23T16:09:02.998Z,11.70
2022-12-23T16:11:39.499Z,11.40
2022-12-23T16:14:22.597Z,11.30
2022-12-23T16:16:58.205Z,11.30
2022-12-23T16:19:48.056Z,11.20
2022-12-23T16:22:19.509Z,11.20
2022-12-23T16:24:57.034Z,11.10
2022-12-23T16:27:44.313Z,11.00
2022-12-23T16:30:20.022Z,10.80
2022-12-23T16:32:54.915Z,10.70
2022-12-23T16:35:39.975Z,10.60
2022-12-23T16:38:27.595Z,10.50
2022-12-23T16:40:57.452Z,10.50
2022-12-23T16:43:26.145Z,10.40
2022-12-23T16:45:56.040Z,10.20
2022-12-23T16:48:42.684Z,10.10
2022-12-23T16:51:16.425Z,9.90
2022-12-23T16:53:47.619Z,9.90
2022-12-23T16:56:25.677Z,9.90
2022-12-23T16:59:02.280Z,10.00
2022-12-23T17:01:46.212Z,10.00
2022-12-23T17:04:14.994Z,10.00
2022-12-23T17:06:43.874Z,9.80
2022-12-23T17:09:13.709Z,9.70
2022-12-23T17:11:48.394Z,9.60
2022-12-23T17:14:26.744Z,9.50
2022-12-23T17:16:55.189Z,9.40
2022-12-23T17:19:29.247Z,9.40
2022-12-23T17:22:04.789Z,9.40
2022-12-23T17:24:35.334Z,9.50
2022-12-23T17:27:14.890Z,9.40
2022-12-23T17:29:43.833Z,9.50
2022-12-23T17:32:14.001Z,9.50
2022-12-23T17:34:42.737Z,9.40
2022-12-23T17:37:17.557Z,9.30
2022-12-23T17:39:46.611Z,9.30
2022-12-23T17:42:25.558Z,9.20
2022-12-23T17:44:54.459Z,9.20
2022-12-23T17:47:23.100Z,9.20
2022-12-23T17:49:51.264Z,9.10
2022-12-23T17:52:21.953Z,9.10
2022-12-23T17:54:52.277Z,9.00
2022-12-23T17:57:22.732Z,8.90
2022-12-23T17:59:52.814Z,8.80
2022-12-23T18:02:35.322Z,8.70
2022-12-23T18:05:18.810Z,8.70
2022-12-23T18:07:46.853Z,8.80
2022-12-23T18:10:17.912Z,8.90
2022-12-23T18:12:50.400Z,9.10
2022-12-23T18:15:23.590Z,9.00
2022-12-23T18:17:53.270Z,8.80
2022-12-23T18:20:23.873Z,8.60
2022-12-23T18:22:54.435Z,8.50
2022-12-23T18:25:25.477Z,8.30
2022-12-23T18:27:55.169Z,8.30
2022-12-23T18:30:50.126Z,8.30
2022-12-23T18:33:43.316Z,8.30
2022-12-23T18:36:25.316Z,8.30
2022-12-23T18:39:00.282Z,8.40
2022-12-23T18:41:28.621Z,8.60
2022-12-23T18:43:56.992Z,8.60
2022-12-23T18:46:25.138Z,8.50
2022-12-23T18:48:53.952Z,8.60
2022-12-23T18:51:22.772Z,8.50
2022-12-23T18:53:51.018Z,8.40
2022-12-23T18:56:21.385Z,8.20
2022-12-23T18:58:49.510Z,8.20
2022-12-23T19:01:18.878Z,8.10
2022-12-23T19:03:47.852Z,8.10
2022-12-23T19:06:16.576Z,8.00
2022-12-23T19:08:45.010Z,7.90
2022-12-23T19:11:16.129Z,8.10
2022-12-23T19:13:44.368Z,8.00
2022-12-23T19:16:37.262Z,8.00
2022-12-23T19:19:05.589Z,7.90
2022-12-23T19:21:33.955Z,8.00
2022-12-23T19:24:02.909Z,8.00
2022-12-23T19:26:30.883Z,8.00
2022-12-23T19:28:59.259Z,8.00
2022-12-23T19:31:27.654Z,8.00
2022-12-23T19:33:55.994Z,8.00
2022-12-23T19:36:24.095Z,7.90
2022-12-23T19:38:52.340Z,7.90
2022-12-23T19:41:20.435Z,8.00
2022-12-23T19:43:48.431Z,8.10
2022-12-23T19:46:17.088Z,8.10
2022-12-23T19:48:51.647Z,8.00
2022-12-23T19:51:19.690Z,8.00
2022-12-23T19:53:51.124Z,8.00
2022-12-23T19:56:21.336Z,8.00
2022-12-23T19:58:49.725Z,7.90
2022-12-23T20:01:26.366Z,7.80
2022-12-23T20:03:55.924Z,7.80
2022-12-23T20:06:38.376Z,7.90
2022-12-23T20:09:08.582Z,7.90
2022-12-23T20:11:42.366Z,7.80
2022-12-23T20:14:11.672Z,7.60
2022-12-23T20:16:40.675Z,7.60
2022-12-23T20:19:08.930Z,7.60
2022-12-23T20:21:37.624Z,7.60
2022-12-23T20:24:06.293Z,7.60
2022-12-23T20:26:34.505Z,7.60
2022-12-23T20:29:02.575Z,7.80
2022-12-23T20:31:32.768Z,7.80
2022-12-23T20:34:01.815Z,7.80
2022-12-23T20:36:32.502Z,7.90
2022-12-23T20:39:02.267Z,7.90
2022-12-23T20:41:32.113Z,7.70
2022-12-23T20:44:33.433Z,7.60
2022-12-23T20:46:48.277Z,7.70
2022-12-23T20:49:16.445Z,7.70
2022-12-23T20:51:44.352Z,7.70
2022-12-23T20:54:12.851Z,7.70
2022-12-23T20:56:40.786Z,7.60
2022-12-23T20:59:09.099Z,7.70
2022-12-23T21:01:39.392Z,7.60
2022-12-23T21:04:13.052Z,7.50
2022-12-23T21:06:41.085Z,7.50
2022-12-23T21:09:11.817Z,7.50
2022-12-23T21:11:43.514Z,7.40
2022-12-23T21:14:12.226Z,7.30
2022-12-23T21:16:40.703Z,7.30
2022-12-23T21:19:13.767Z,7.40
2022-12-23T21:21:41.677Z,7.40
2022-12-23T21:24:09.909Z,7.50
2022-12-23T21:26:38.477Z,7.50
2022-12-23T21:29:08.348Z,7.60
2022-12-23T21:31:39.803Z,7.70
2022-12-23T21:34:08.950Z,7.80
2022-12-23T21:36:38.857Z,7.90
2022-12-23T21:39:08.529Z,7.80
2022-12-23T21:41:39.067Z,7.80
2022-12-23T21:44:07.833Z,7.70
2022-12-23T21:46:35.853Z,7.70
2022-12-23T21:49:04.245Z,7.60
2022-12-23T21:51:40.104Z,7.50
2022-12-23T21:54:10.566Z,7.30
2022-12-23T21:56:39.853Z,7.30
2022-12-23T21:59:13.597Z,7.20
2022-12-23T22:01:42.864Z,6.90
2022-12-23T22:04:11.730Z,6.80
2022-12-23T22:06:45.761Z,6.70
2022-12-23T22:09:17.246Z,6.70
2022-12-23T22:11:46.676Z,6.70
2022-12-23T22:14:17.118Z,6.70
2022-12-23T22:16:45.149Z,6.70
2022-12-23T22:19:13.363Z,6.60
2022-12-23T22:21:42.727Z,6.60
2022-12-23T22:24:11.048Z,6.50
2022-12-23T22:26:40.876Z,6.50
2022-12-23T22:29:08.808Z,6.50
2022-12-23T22:31:48.288Z,6.50
2022-12-23T22:34:21.515Z,6.50
2022-12-23T22:36:50.103Z,6.50
2022-12-23T22:39:21.653Z,6.50
2022-12-23T22:41:51.436Z,6.50
2022-12-23T22:44:19.977Z,6.50
2022-12-23T22:46:48.080Z,6.50
2022-12-23T22:49:16.789Z,6.40
2022-12-23T22:51:45.411Z,6.30
2022-12-23T22:54:13.515Z,6.10
2022-12-23T22:56:41.942Z,6.00
2022-12-23T22:59:24.935Z,5.90
2022-12-23T23:01:54.130Z,5.80
2022-12-23T23:04:22.413Z,5.80
2022-12-23T23:06:50.546Z,5.80
2022-12-23T23:09:20.654Z,5.90
2022-12-23T23:11:49.907Z,5.90
2022-12-23T23:14:18.922Z,6.00
2022-12-23T23:16:47.152Z,6.00
2022-12-23T23:19:17.286Z,6.00
2022-12-23T23:21:45.437Z,5.90
2022-12-23T23:24:13.695Z,5.90
2022-12-23T23:26:41.635Z,6.00
2022-12-23T23:29:10.102Z,6.10
2022-12-23T23:31:43.269Z,6.10
2022-12-23T23:34:12.909Z,6.20
2022-12-23T23:36:41.736Z,6.30
2022-12-23T23:39:12.382Z,6.30
2022-12-23T23:41:41.186Z,6.20
2022-12-23T23:44:10.203Z,6.10
2022-12-23T23:46:38.939Z,6.00
2022-12-23T23:49:06.851Z,6.10
2022-12-23T23:51:35.264Z,6.10
2022-12-23T23:54:03.206Z,6.20
2022-12-23T23:56:37.872Z,6.30
2022-12-23T23:59:09.068Z,6.30
